Time;durP1;ratioP1;P1;durP2;ratioP2;P2;SDS_P1;SDS_P2;PMS_P1;PMS_P2;Temp;Humidity;BMP_temperature;BMP_pressure;BME280_temperature;BME280_humidity;BME280_pressure;Samples;Min_cycle;Max_cycle;Signal;HPM_P1;HPM_P2
2023/08/21 00:02:04;;;;;;;22.25;18.17;;;;;;;;;;10336433;28;20413;-86
2023/08/21 00:07:06;;;;;;;22.55;18.20;;;;;;;;;;10320316;28;20049;-86
2023/08/21 00:12:07;;;;;;;22.70;18.10;;;;;;;;;;10348831;28;20057;-86
2023/08/21 00:17:08;;;;;;;25.52;19.67;;;;;;;;;;10327284;28;20029;-89
2023/08/21 00:22:09;;;;;;;25.27;19.02;;;;;;;;;;10319056;28;20048;-85
2023/08/21 00:27:10;;;;;;;24.40;19.42;;;;;;;;;;10317248;28;20050;-86
2023/08/21 00:32:12;;;;;;;24.50;19.88;;;;;;;;;;10347683;28;20049;-85
2023/08/21 00:37:13;;;;;;;28.08;20.63;;;;;;;;;;10329426;28;20034;-85
2023/08/21 00:42:14;;;;;;;23.42;18.88;;;;;;;;;;10338077;28;20026;-85
2023/08/21 00:47:15;;;;;;;26.40;20.42;;;;;;;;;;10332046;28;20117;-85
2023/08/21 00:52:17;;;;;;;28.77;23.20;;;;;;;;;;10361061;28;20117;-86
2023/08/21 00:57:18;;;;;;;28.10;21.92;;;;;;;;;;10330462;28;20493;-86
2023/08/21 01:02:19;;;;;;;26.52;21.30;;;;;;;;;;10321489;28;20045;-85
2023/08/21 01:07:20;;;;;;;27.80;21.52;;;;;;;;;;10330475;28;20053;-85
2023/08/21 01:12:21;;;;;;;26.50;21.55;;;;;;;;;;10343105;28;20074;-85
2023/08/21 01:17:23;;;;;;;28.55;22.15;;;;;;;;;;10328786;28;20029;-85
2023/08/21 01:22:27;;;;;;;30.67;23.52;;;;;;;;;;10341129;28;20086;-86
2023/08/21 01:27:28;;;;;;;29.85;21.70;;;;;;;;;;10352629;28;20533;-85
2023/08/21 01:32:46;;;;;;;29.55;23.48;;;;;;;;;;10334260;28;20054;-85
2023/08/21 01:37:47;;;;;;;28.33;23.23;;;;;;;;;;10361065;28;20551;-86
2023/08/21 01:42:48;;;;;;;29.15;23.15;;;;;;;;;;10342091;28;20654;-86
2023/08/21 01:47:49;;;;;;;29.83;23.65;;;;;;;;;;10312661;28;20049;-86
2023/08/21 01:52:50;;;;;;;28.38;23.35;;;;;;;;;;10355088;28;20112;-86
2023/08/21 01:57:51;;;;;;;25.30;20.80;;;;;;;;;;10343472;28;20034;-87
2023/08/21 02:02:52;;;;;;;29.83;23.83;;;;;;;;;;10335904;28;20042;-84
2023/08/21 02:07:53;;;;;;;31.95;24.80;;;;;;;;;;10360364;28;20095;-86
2023/08/21 02:12:54;;;;;;;31.73;24.67;;;;;;;;;;10348319;28;20030;-84
2023/08/21 02:17:55;;;;;;;28.27;22.48;;;;;;;;;;10351848;28;20044;-86
2023/08/21 02:22:57;;;;;;;30.85;22.85;;;;;;;;;;10356128;28;20037;-85
2023/08/21 02:27:58;;;;;;;30.88;23.88;;;;;;;;;;10333629;28;20438;-86
2023/08/21 02:32:59;;;;;;;33.85;24.98;;;;;;;;;;10327740;28;20058;-85
2023/08/21 02:38:00;;;;;;;30.60;24.67;;;;;;;;;;10324132;28;20083;-86
2023/08/21 02:43:01;;;;;;;28.50;22.55;;;;;;;;;;10330308;28;20038;-85
2023/08/21 02:48:02;;;;;;;28.98;24.27;;;;;;;;;;10332640;28;20045;-87
2023/08/21 02:53:03;;;;;;;35.05;25.73;;;;;;;;;;10331619;28;20040;-86
2023/08/21 02:58:04;;;;;;;31.73;25.13;;;;;;;;;;10333917;28;20461;-87
2023/08/21 03:03:05;;;;;;;34.17;25.75;;;;;;;;;;10334372;28;20034;-86
2023/08/21 03:08:06;;;;;;;40.63;28.75;;;;;;;;;;10333859;28;20042;-86
2023/08/21 03:13:07;;;;;;;38.53;29.35;;;;;;;;;;10356592;28;20034;-87
2023/08/21 03:18:08;;;;;;;33.85;25.92;;;;;;;;;;10321753;28;20033;-85
2023/08/21 03:23:09;;;;;;;36.08;28.65;;;;;;;;;;10349129;28;20033;-87
2023/08/21 03:28:10;;;;;;;32.25;24.52;;;;;;;;;;10331373;28;20091;-87
2023/08/21 03:33:11;;;;;;;33.70;25.15;;;;;;;;;;10321251;28;20054;-87
2023/08/21 03:38:12;;;;;;;35.33;26.60;;;;;;;;;;10333348;28;20061;-87
2023/08/21 03:43:13;;;;;;;36.28;26.92;;;;;;;;;;10354959;28;20036;-90
2023/08/21 03:48:14;;;;;;;33.90;25.45;;;;;;;;;;10322151;28;20063;-88
2023/08/21 03:53:15;;;;;;;32.45;25.52;;;;;;;;;;10337825;28;20044;-91
2023/08/21 03:58:16;;;;;;;35.95;26.15;;;;;;;;;;10358675;22;20062;-88
2023/08/21 04:03:17;;;;;;;33.60;25.88;;;;;;;;;;10355648;28;20041;-88
2023/08/21 04:08:18;;;;;;;37.33;26.52;;;;;;;;;;10349296;28;20545;-88
2023/08/21 04:13:20;;;;;;;34.25;26.10;;;;;;;;;;10345722;28;20090;-87
2023/08/21 04:18:21;;;;;;;32.33;23.85;;;;;;;;;;10345383;28;20033;-90
2023/08/21 04:23:22;;;;;;;35.42;25.98;;;;;;;;;;10350150;28;20037;-88
2023/08/21 04:28:23;;;;;;;37.83;26.63;;;;;;;;;;10336394;28;20044;-87
2023/08/21 04:33:25;;;;;;;29.08;23.48;;;;;;;;;;10330347;28;20022;-87
2023/08/21 04:38:26;;;;;;;28.27;22.33;;;;;;;;;;10345885;28;20022;-87
2023/08/21 04:43:27;;;;;;;31.25;24.05;;;;;;;;;;10344406;28;20088;-88
2023/08/21 04:48:28;;;;;;;40.53;24.85;;;;;;;;;;10332760;28;20670;-87
2023/08/21 04:53:30;;;;;;;31.33;25.20;;;;;;;;;;10350759;28;20087;-87
2023/08/21 04:58:31;;;;;;;31.15;22.80;;;;;;;;;;10348357;28;20501;-89
2023/08/21 05:03:32;;;;;;;33.75;24.90;;;;;;;;;;10342203;28;20801;-88
2023/08/21 05:08:33;;;;;;;39.13;26.80;;;;;;;;;;10346388;28;20041;-88
2023/08/21 05:13:34;;;;;;;35.88;28.33;;;;;;;;;;10341562;28;20767;-87
2023/08/21 05:18:35;;;;;;;32.28;26.73;;;;;;;;;;10325367;28;20034;-88
2023/08/21 05:23:36;;;;;;;34.88;27.42;;;;;;;;;;10349857;28;20489;-85
2023/08/21 05:28:37;;;;;;;34.65;28.17;;;;;;;;;;10341940;28;20042;-85
2023/08/21 05:33:38;;;;;;;30.80;25.10;;;;;;;;;;10355784;28;20033;-86
2023/08/21 05:38:39;;;;;;;32.40;24.77;;;;;;;;;;10346704;28;20081;-87
2023/08/21 05:43:42;;;;;;;33.70;24.65;;;;;;;;;;10348656;28;20030;-86
2023/08/21 05:48:43;;;;;;;32.97;26.73;;;;;;;;;;10342437;28;20049;-86
2023/08/21 05:53:44;;;;;;;38.10;27.02;;;;;;;;;;10342923;28;20049;-86
2023/08/21 05:58:45;;;;;;;28.77;23.90;;;;;;;;;;10354045;28;20054;-86
2023/08/21 06:03:46;;;;;;;29.38;23.52;;;;;;;;;;10347821;28;20030;-87
2023/08/21 06:08:48;;;;;;;28.33;23.88;;;;;;;;;;10360446;28;20034;-87
2023/08/21 06:13:49;;;;;;;33.28;24.55;;;;;;;;;;10356127;28;20022;-87
2023/08/21 06:18:50;;;;;;;27.30;22.50;;;;;;;;;;10345934;28;20120;-87
2023/08/21 06:23:51;;;;;;;28.05;22.33;;;;;;;;;;10353589;28;20032;-87
2023/08/21 06:28:52;;;;;;;29.17;22.17;;;;;;;;;;10354856;28;20501;-89
2023/08/21 06:33:53;;;;;;;29.75;21.70;;;;;;;;;;10340422;28;20105;-88
2023/08/21 06:38:55;;;;;;;31.33;22.23;;;;;;;;;;10351750;28;20057;-87
2023/08/21 06:43:58;;;;;;;29.08;20.00;;;;;;;;;;10346663;28;20038;-89
2023/08/21 06:48:59;;;;;;;28.77;21.73;;;;;;;;;;10349993;28;20589;-88
2023/08/21 06:54:00;;;;;;;37.03;23.63;;;;;;;;;;10332396;28;20034;-88
2023/08/21 06:59:01;;;;;;;29.00;20.63;;;;;;;;;;10340166;28;20057;-88
2023/08/21 07:04:03;;;;;;;24.63;20.13;;;;;;;;;;10353378;28;20034;-89
2023/08/21 07:09:04;;;;;;;28.13;20.30;;;;;;;;;;10353528;28;20046;-88
2023/08/21 07:14:05;;;;;;;27.48;21.60;;;;;;;;;;10353628;28;20037;-87
2023/08/21 07:19:06;;;;;;;27.35;22.50;;;;;;;;;;10324183;28;20072;-88
2023/08/21 07:24:07;;;;;;;32.25;22.98;;;;;;;;;;10328879;28;20121;-87
2023/08/21 07:29:08;;;;;;;30.27;24.00;;;;;;;;;;10334545;28;20043;-89
2023/08/21 07:34:09;;;;;;;30.02;23.45;;;;;;;;;;10330952;28;20042;-88
2023/08/21 07:39:10;;;;;;;31.60;23.48;;;;;;;;;;10348053;28;20034;-88
2023/08/21 07:44:13;;;;;;;28.20;22.83;;;;;;;;;;10355265;28;20042;-88
2023/08/21 07:49:14;;;;;;;30.27;22.55;;;;;;;;;;10336060;28;20570;-89
2023/08/21 07:54:15;;;;;;;29.38;23.55;;;;;;;;;;10351536;28;20048;-89
2023/08/21 07:59:17;;;;;;;34.80;28.65;;;;;;;;;;10329551;28;20084;-88
2023/08/21 08:04:20;;;;;;;33.55;26.65;;;;;;;;;;10329623;28;20033;-89
2023/08/21 08:09:21;;;;;;;30.98;24.42;;;;;;;;;;10338636;28;20084;-87
2023/08/21 08:14:22;;;;;;;32.47;25.60;;;;;;;;;;10336888;28;20056;-86
2023/08/21 08:19:23;;;;;;;29.17;23.48;;;;;;;;;;10326844;28;20034;-87
2023/08/21 08:24:24;;;;;;;27.85;21.40;;;;;;;;;;10342809;28;20052;-87
2023/08/21 08:29:26;;;;;;;25.35;21.13;;;;;;;;;;10355714;28;20038;-87
2023/08/21 08:34:27;;;;;;;23.85;19.90;;;;;;;;;;10349216;28;20057;-86
2023/08/21 08:39:28;;;;;;;26.85;19.33;;;;;;;;;;10350649;28;20508;-88
2023/08/21 08:44:30;;;;;;;24.73;19.33;;;;;;;;;;10342400;28;20026;-87
2023/08/21 08:49:31;;;;;;;23.10;17.17;;;;;;;;;;10338602;28;20041;-86
2023/08/21 08:54:33;;;;;;;22.45;18.35;;;;;;;;;;10338287;28;20037;-88
2023/08/21 08:59:34;;;;;;;20.80;17.55;;;;;;;;;;10334141;28;20103;-87
2023/08/21 09:04:35;;;;;;;20.35;16.83;;;;;;;;;;10343878;28;20126;-87
2023/08/21 09:09:46;;;;;;;21.45;17.98;;;;;;;;;;10354607;28;20048;-88
2023/08/21 09:14:47;;;;;;;22.13;18.90;;;;;;;;;;10340168;28;20030;-88
2023/08/21 09:19:48;;;;;;;23.17;17.60;;;;;;;;;;10337705;28;20041;-88
2023/08/21 09:25:06;;;;;;;22.15;16.95;;;;;;;;;;10338882;28;20031;-88
2023/08/21 09:30:12;;;;;;;20.85;16.88;;;;;;;;;;10348140;28;20280;-88
2023/08/21 09:35:14;;;;;;;20.02;15.85;;;;;;;;;;10357586;28;20038;-87
2023/08/21 09:40:18;;;;;;;20.30;16.25;;;;;;;;;;10344236;28;20070;-88
2023/08/21 09:45:26;;;;;;;18.55;15.10;;;;;;;;;;10357315;28;20106;-87
2023/08/21 09:50:29;;;;;;;18.60;15.35;;;;;;;;;;10355786;28;20026;-88
2023/08/21 09:55:31;;;;;;;19.08;15.00;;;;;;;;;;10352790;28;20060;-87
2023/08/21 10:00:34;;;;;;;16.75;13.55;;;;;;;;;;10338888;28;20072;-88
2023/08/21 10:05:36;;;;;;;14.20;11.98;;;;;;;;;;10350279;28;20750;-87
2023/08/21 10:10:38;;;;;;;14.65;13.15;;;;;;;;;;10355608;28;20032;-87
2023/08/21 10:15:40;;;;;;;14.45;12.60;;;;;;;;;;10353996;28;20482;-87
2023/08/21 10:20:41;;;;;;;15.85;14.15;;;;;;;;;;10331099;28;20064;-87
2023/08/21 10:25:42;;;;;;;14.90;12.77;;;;;;;;;;10356509;28;20048;-87
2023/08/21 10:30:43;;;;;;;15.40;12.95;;;;;;;;;;10356530;28;20141;-87
2023/08/21 10:35:47;;;;;;;14.25;11.52;;;;;;;;;;10349049;28;20033;-86
2023/08/21 10:41:06;;;;;;;17.53;13.87;;;;;;;;;;10356820;28;20033;-87
2023/08/21 10:46:08;;;;;;;16.35;12.88;;;;;;;;;;10356786;28;20361;-87
2023/08/21 10:51:09;;;;;;;15.05;12.27;;;;;;;;;;10356354;28;20473;-86
2023/08/21 10:56:10;;;;;;;14.05;11.88;;;;;;;;;;10357397;28;20053;-86
2023/08/21 11:01:13;;;;;;;18.40;13.82;;;;;;;;;;10353163;28;20030;-88
2023/08/21 11:06:14;;;;;;;14.27;12.63;;;;;;;;;;10348538;28;20049;-87
2023/08/21 11:11:17;;;;;;;17.60;14.50;;;;;;;;;;10359173;28;20120;-87
2023/08/21 11:16:18;;;;;;;17.35;14.63;;;;;;;;;;10351420;28;20264;-87
2023/08/21 11:21:19;;;;;;;16.00;13.88;;;;;;;;;;10341691;28;20058;-86
2023/08/21 11:26:21;;;;;;;15.55;12.75;;;;;;;;;;10357285;28;20034;-87
2023/08/21 11:31:23;;;;;;;18.60;14.85;;;;;;;;;;10344839;28;20040;-87
2023/08/21 11:36:24;;;;;;;17.85;14.20;;;;;;;;;;10336040;28;20478;-89
2023/08/21 11:41:51;;;;;;;18.48;14.30;;;;;;;;;;10341250;28;20034;-90
2023/08/21 11:46:53;;;;;;;16.15;13.27;;;;;;;;;;10348522;28;20049;-88
2023/08/21 11:51:54;;;;;;;17.35;14.68;;;;;;;;;;10354198;28;20396;-88
2023/08/21 11:56:55;;;;;;;18.27;14.35;;;;;;;;;;10355351;28;20062;-86
2023/08/21 12:01:56;;;;;;;18.10;15.60;;;;;;;;;;10342841;28;20623;-87
2023/08/21 12:06:57;;;;;;;20.58;18.25;;;;;;;;;;10344111;28;20034;-86
2023/08/21 12:12:01;;;;;;;17.48;14.93;;;;;;;;;;10326020;28;20071;-87
2023/08/21 12:17:02;;;;;;;18.95;14.82;;;;;;;;;;10351218;28;20029;-87
2023/08/21 12:22:04;;;;;;;17.60;14.43;;;;;;;;;;10348034;28;20457;-89
2023/08/21 12:27:08;;;;;;;18.15;14.43;;;;;;;;;;10343590;28;20493;-88
2023/08/21 12:32:09;;;;;;;19.83;15.02;;;;;;;;;;10340868;28;20038;-87
2023/08/21 12:37:10;;;;;;;15.98;13.68;;;;;;;;;;10344994;28;20438;-88
2023/08/21 12:42:11;;;;;;;18.13;15.52;;;;;;;;;;10342140;28;20167;-87
2023/08/21 12:47:12;;;;;;;18.52;15.55;;;;;;;;;;10338567;28;20049;-88
2023/08/21 12:52:13;;;;;;;15.23;13.25;;;;;;;;;;10350954;28;20292;-86
2023/08/21 12:57:16;;;;;;;18.75;13.98;;;;;;;;;;10348135;28;20050;-87
2023/08/21 13:02:18;;;;;;;13.43;10.70;;;;;;;;;;10341108;28;20038;-87
2023/08/21 13:07:19;;;;;;;12.38;10.75;;;;;;;;;;10342978;28;20125;-86
2023/08/21 13:12:20;;;;;;;16.52;12.63;;;;;;;;;;10342362;28;20606;-84
2023/08/21 13:17:21;;;;;;;16.55;12.77;;;;;;;;;;10343931;28;20087;-88
2023/08/21 13:22:22;;;;;;;16.60;14.32;;;;;;;;;;10332144;28;20462;-87
2023/08/21 13:27:23;;;;;;;16.58;13.70;;;;;;;;;;10337466;28;20040;-91
2023/08/21 13:32:24;;;;;;;17.00;14.00;;;;;;;;;;10346801;28;20036;-87
2023/08/21 13:37:27;;;;;;;16.50;13.50;;;;;;;;;;10342283;28;20096;-89
2023/08/21 13:42:30;;;;;;;12.23;10.68;;;;;;;;;;10337120;28;20069;-87
2023/08/21 13:47:31;;;;;;;16.23;12.50;;;;;;;;;;10340803;28;20045;-92
2023/08/21 13:52:32;;;;;;;12.90;11.38;;;;;;;;;;10351670;28;20407;-88
2023/08/21 13:57:33;;;;;;;14.82;12.20;;;;;;;;;;10347447;28;20137;-88
2023/08/21 14:02:35;;;;;;;13.65;11.55;;;;;;;;;;10332211;28;20034;-87
2023/08/21 14:07:36;;;;;;;15.85;11.90;;;;;;;;;;10350924;28;20159;-87
2023/08/21 14:12:37;;;;;;;14.15;11.40;;;;;;;;;;10343495;28;20026;-88
2023/08/21 14:17:41;;;;;;;13.57;11.68;;;;;;;;;;10338177;28;20030;-92
2023/08/21 14:22:42;;;;;;;16.90;12.98;;;;;;;;;;10352939;28;20514;-89
2023/08/21 14:27:43;;;;;;;15.27;10.38;;;;;;;;;;10379289;28;20405;-86
2023/08/21 14:32:44;;;;;;;16.38;10.45;;;;;;;;;;10342373;28;20030;-88
2023/08/21 14:37:45;;;;;;;11.90;10.30;;;;;;;;;;10337684;23;20407;-91
2023/08/21 14:42:49;;;;;;;12.45;10.68;;;;;;;;;;10333413;28;20023;-93
2023/08/21 14:47:50;;;;;;;11.95;10.68;;;;;;;;;;10328580;28;20038;-89
2023/08/21 14:52:51;;;;;;;12.52;11.05;;;;;;;;;;10324400;28;20087;-90
2023/08/21 14:57:52;;;;;;;11.35;10.20;;;;;;;;;;10317914;28;20062;-90
2023/08/21 15:02:54;;;;;;;13.30;11.15;;;;;;;;;;10319145;28;20033;-91
2023/08/21 15:07:55;;;;;;;11.43;9.77;;;;;;;;;;10318038;28;20038;-92
2023/08/21 15:12:56;;;;;;;12.98;10.43;;;;;;;;;;10315012;28;20026;-90
2023/08/21 15:17:57;;;;;;;13.90;11.40;;;;;;;;;;10322861;28;20035;-89
2023/08/21 15:22:58;;;;;;;14.18;12.00;;;;;;;;;;10317745;28;20069;-90
2023/08/21 15:27:59;;;;;;;12.95;11.57;;;;;;;;;;10311756;28;20204;-92
2023/08/21 15:33:00;;;;;;;15.65;12.25;;;;;;;;;;10305287;28;20405;-89
2023/08/21 15:38:03;;;;;;;11.27;10.15;;;;;;;;;;10304508;28;20083;-89
2023/08/21 15:43:05;;;;;;;13.48;10.95;;;;;;;;;;10321002;28;20503;-88
2023/08/21 15:48:06;;;;;;;11.18;9.50;;;;;;;;;;10305061;28;20700;-89
2023/08/21 15:53:07;;;;;;;11.85;10.30;;;;;;;;;;10319875;28;20045;-91
2023/08/21 15:58:08;;;;;;;12.10;10.32;;;;;;;;;;10293854;28;20038;-89
2023/08/21 16:03:09;;;;;;;11.20;10.10;;;;;;;;;;10304997;28;20027;-89
2023/08/21 16:08:11;;;;;;;68.78;54.30;;;;;;;;;;10326209;28;20103;-89
2023/08/21 16:13:12;;;;;;;32.63;24.42;;;;;;;;;;10317903;28;20114;-89
2023/08/21 16:18:13;;;;;;;26.27;18.65;;;;;;;;;;10303818;28;20026;-88
2023/08/21 16:23:14;;;;;;;16.15;13.27;;;;;;;;;;10302640;28;20034;-89
2023/08/21 16:28:15;;;;;;;84.38;62.03;;;;;;;;;;10291880;28;20065;-88
2023/08/21 16:33:17;;;;;;;118.70;94.60;;;;;;;;;;10299491;28;20496;-91
2023/08/21 16:38:18;;;;;;;278.55;249.18;;;;;;;;;;10299257;28;20105;-89
2023/08/21 16:43:19;;;;;;;101.45;84.07;;;;;;;;;;10310518;28;20285;-89
2023/08/21 16:48:21;;;;;;;37.58;32.28;;;;;;;;;;10305527;28;20125;-91
2023/08/21 16:53:23;;;;;;;32.88;23.67;;;;;;;;;;10300593;28;20062;-89
2023/08/21 16:58:24;;;;;;;18.77;16.50;;;;;;;;;;10303613;28;20139;-89
2023/08/21 17:03:25;;;;;;;31.15;26.25;;;;;;;;;;10311440;23;20103;-89
2023/08/21 17:08:26;;;;;;;32.15;25.55;;;;;;;;;;10311598;28;20050;-88
2023/08/21 17:13:27;;;;;;;35.53;28.08;;;;;;;;;;10311874;28;20030;-89
2023/08/21 17:18:28;;;;;;;31.20;23.75;;;;;;;;;;10301747;28;20507;-91
2023/08/21 17:23:29;;;;;;;19.30;13.88;;;;;;;;;;10299169;28;20557;-89
2023/08/21 17:28:30;;;;;;;20.88;17.25;;;;;;;;;;10307553;28;20036;-89
2023/08/21 17:33:31;;;;;;;73.47;64.72;;;;;;;;;;10299784;28;20027;-89
2023/08/21 17:38:32;;;;;;;41.47;35.17;;;;;;;;;;10310621;28;20050;-88
2023/08/21 17:43:33;;;;;;;36.53;27.98;;;;;;;;;;10307950;28;20751;-89
2023/08/21 17:48:35;;;;;;;53.70;37.53;;;;;;;;;;10301260;28;20066;-88
2023/08/21 17:53:36;;;;;;;21.40;16.55;;;;;;;;;;10313130;28;20038;-89
2023/08/21 17:58:37;;;;;;;30.92;24.77;;;;;;;;;;10292397;28;20026;-87
2023/08/21 18:03:38;;;;;;;27.20;19.88;;;;;;;;;;10289286;28;20059;-87
2023/08/21 18:08:40;;;;;;;26.30;19.55;;;;;;;;;;10301889;28;20520;-89
2023/08/21 18:13:41;;;;;;;28.83;21.38;;;;;;;;;;10294848;28;20203;-88
2023/08/21 18:18:45;;;;;;;34.00;24.98;;;;;;;;;;10315030;28;20505;-86
2023/08/21 18:23:46;;;;;;;29.87;20.93;;;;;;;;;;10316713;28;20038;-88
2023/08/21 18:28:47;;;;;;;37.28;26.90;;;;;;;;;;10301888;28;20054;-87
2023/08/21 18:33:48;;;;;;;41.28;28.08;;;;;;;;;;10304875;28;20049;-87
2023/08/21 18:38:49;;;;;;;245.43;166.60;;;;;;;;;;10308225;28;20061;-88
2023/08/21 18:43:50;;;;;;;99.95;66.60;;;;;;;;;;10306012;28;20038;-86
2023/08/21 18:48:51;;;;;;;123.53;84.80;;;;;;;;;;10305725;28;20038;-88
2023/08/21 18:53:52;;;;;;;190.63;116.22;;;;;;;;;;10316228;28;20034;-88
2023/08/21 18:58:53;;;;;;;257.10;158.02;;;;;;;;;;10306166;28;20042;-89
2023/08/21 19:03:54;;;;;;;469.45;322.08;;;;;;;;;;10307775;28;20499;-88
2023/08/21 19:08:55;;;;;;;533.05;368.42;;;;;;;;;;10307351;28;20034;-88
2023/08/21 19:13:56;;;;;;;398.98;262.10;;;;;;;;;;10313603;28;20039;-87
2023/08/21 19:18:58;;;;;;;347.17;225.60;;;;;;;;;;10295200;28;20042;-89
2023/08/21 19:23:59;;;;;;;277.17;183.30;;;;;;;;;;10302639;28;20121;-88
2023/08/21 19:29:00;;;;;;;225.40;134.90;;;;;;;;;;10304839;28;20771;-90
2023/08/21 19:34:01;;;;;;;314.00;165.23;;;;;;;;;;10307409;28;20045;-88
2023/08/21 19:39:02;;;;;;;171.05;84.70;;;;;;;;;;10303843;28;20061;-87
2023/08/21 19:44:05;;;;;;;129.10;61.42;;;;;;;;;;10294668;28;20027;-89
2023/08/21 19:49:06;;;;;;;159.23;77.25;;;;;;;;;;10288923;28;20506;-88
2023/08/21 19:54:07;;;;;;;83.28;43.00;;;;;;;;;;10293783;28;20041;-88
2023/08/21 19:59:08;;;;;;;46.75;25.88;;;;;;;;;;10304286;28;20066;-87
2023/08/21 20:04:10;;;;;;;31.95;18.27;;;;;;;;;;10301753;28;20066;-88
2023/08/21 20:09:11;;;;;;;60.65;28.75;;;;;;;;;;10299091;28;20038;-87
2023/08/21 20:14:12;;;;;;;53.72;25.85;;;;;;;;;;10299344;28;20391;-89
2023/08/21 20:19:13;;;;;;;26.02;15.95;;;;;;;;;;10305417;28;20084;-88
2023/08/21 20:24:14;;;;;;;18.23;12.13;;;;;;;;;;10309898;28;20728;-89
2023/08/21 20:29:15;;;;;;;15.00;11.57;;;;;;;;;;10284191;28;20039;-91
2023/08/21 20:34:16;;;;;;;15.57;11.63;;;;;;;;;;10299120;28;20043;-87
2023/08/21 20:39:17;;;;;;;14.50;10.95;;;;;;;;;;10294847;28;20130;-87
2023/08/21 20:44:18;;;;;;;14.93;10.57;;;;;;;;;;10306188;28;20038;-87
2023/08/21 20:49:20;;;;;;;13.35;10.43;;;;;;;;;;10296672;28;20068;-89
2023/08/21 20:54:21;;;;;;;15.40;10.40;;;;;;;;;;10286889;28;20039;-88
2023/08/21 20:59:22;;;;;;;14.00;11.35;;;;;;;;;;10310552;28;20036;-87
2023/08/21 21:04:23;;;;;;;14.85;10.65;;;;;;;;;;10297460;28;20058;-87
2023/08/21 21:09:24;;;;;;;16.13;10.43;;;;;;;;;;10314843;28;20043;-90
2023/08/21 21:14:25;;;;;;;17.88;11.07;;;;;;;;;;10316688;28;20034;-89
2023/08/21 21:19:26;;;;;;;15.80;11.52;;;;;;;;;;10304700;28;20045;-88
2023/08/21 21:24:27;;;;;;;14.50;11.45;;;;;;;;;;10307046;28;20485;-90
2023/08/21 21:29:28;;;;;;;14.15;10.77;;;;;;;;;;10301621;28;20041;-90
2023/08/21 21:34:31;;;;;;;15.88;10.30;;;;;;;;;;10308009;28;20134;-90
2023/08/21 21:39:32;;;;;;;15.27;10.45;;;;;;;;;;10309780;28;20059;-89
2023/08/21 21:44:34;;;;;;;15.48;10.63;;;;;;;;;;10318281;28;20061;-89
2023/08/21 21:49:35;;;;;;;15.60;11.07;;;;;;;;;;10298524;28;20394;-87
2023/08/21 21:54:36;;;;;;;15.25;10.68;;;;;;;;;;10316832;28;20153;-88
2023/08/21 21:59:37;;;;;;;16.58;11.48;;;;;;;;;;10300907;28;20035;-88
2023/08/21 22:04:38;;;;;;;14.60;10.63;;;;;;;;;;10300652;28;20554;-88
2023/08/21 22:09:41;;;;;;;17.13;10.02;;;;;;;;;;10315969;28;20123;-87
2023/08/21 22:14:42;;;;;;;18.50;10.80;;;;;;;;;;10288391;28;20350;-88
2023/08/21 22:19:43;;;;;;;12.95;9.40;;;;;;;;;;10304505;28;20083;-86
2023/08/21 22:24:44;;;;;;;14.55;9.80;;;;;;;;;;10305842;28;20038;-87
2023/08/21 22:29:45;;;;;;;13.10;9.00;;;;;;;;;;10310439;28;20049;-87
2023/08/21 22:34:46;;;;;;;11.50;8.57;;;;;;;;;;10314426;28;20775;-87
2023/08/21 22:39:47;;;;;;;13.85;9.50;;;;;;;;;;10317509;28;20031;-88
2023/08/21 22:44:49;;;;;;;35.45;18.02;;;;;;;;;;10313894;28;20047;-88
2023/08/21 22:49:50;;;;;;;15.23;10.80;;;;;;;;;;10294427;28;20077;-88
2023/08/21 22:54:51;;;;;;;12.27;8.73;;;;;;;;;;10315608;28;20099;-87
2023/08/21 22:59:52;;;;;;;12.77;9.20;;;;;;;;;;10317571;28;20030;-88
2023/08/21 23:04:53;;;;;;;11.35;8.88;;;;;;;;;;10294626;28;20421;-89
2023/08/21 23:09:54;;;;;;;11.50;8.70;;;;;;;;;;10317581;28;20052;-89
2023/08/21 23:14:55;;;;;;;11.30;8.57;;;;;;;;;;10316630;28;20441;-88
2023/08/21 23:19:56;;;;;;;13.32;8.80;;;;;;;;;;10309825;28;20039;-87
2023/08/21 23:24:57;;;;;;;13.25;9.98;;;;;;;;;;10315522;28;20038;-89
2023/08/21 23:29:58;;;;;;;11.43;9.07;;;;;;;;;;10316606;28;20046;-90
2023/08/21 23:35:20;;;;;;;28.27;17.23;;;;;;;;;;10311797;28;20192;-88
2023/08/21 23:40:20;;;;;;;38.08;19.95;;;;;;;;;;10317747;28;20042;-88
2023/08/21 23:45:21;;;;;;;77.85;37.30;;;;;;;;;;10305740;28;20577;-88
2023/08/21 23:50:23;;;;;;;160.68;78.97;;;;;;;;;;10304529;28;20038;-87
2023/08/21 23:55:24;;;;;;;155.27;74.03;;;;;;;;;;10305391;28;20117;-88
